sensor_id;sensor_type;location;lat;lon;timestamp;pressure;altitude;pressure_sealevel;temperature;humidity
6034;BME280;3045;43.226;27.858;2023-04-15T00:01:20;149795.00;;;14.95;100.00
6034;BME280;3045;43.226;27.858;2023-04-15T00:03:50;149829.28;;;15.08;100.00
6034;BME280;3045;43.226;27.858;2023-04-15T00:06:17;149854.66;;;15.19;100.00
6034;BME280;3045;43.226;27.858;2023-04-15T00:08:47;149810.25;;;15.01;100.00
6034;BME280;3045;43.226;27.858;2023-04-15T00:11:15;149808.97;;;15.00;100.00
6034;BME280;3045;43.226;27.858;2023-04-15T00:13:43;149814.03;;;15.02;100.00
6034;BME280;3045;43.226;27.858;2023-04-15T00:16:10;149803.88;;;14.98;100.00
6034;BME280;3045;43.226;27.858;2023-04-15T00:18:37;149770.91;;;14.85;100.00
6034;BME280;3045;43.226;27.858;2023-04-15T00:21:04;149808.97;;;15.00;100.00
6034;BME280;3045;43.226;27.858;2023-04-15T00:23:31;149819.13;;;15.04;100.00
6034;BME280;3045;43.226;27.858;2023-04-15T00:26:00;149791.22;;;14.93;100.00
6034;BME280;3045;43.226;27.858;2023-04-15T00:28:27;149769.66;;;14.85;100.00
6034;BME280;3045;43.226;27.858;2023-04-15T00:30:54;149755.72;;;14.79;100.00
6034;BME280;3045;43.226;27.858;2023-04-15T00:33:21;149751.88;;;14.78;100.00
6034;BME280;3045;43.226;27.858;2023-04-15T00:35:48;149758.25;;;14.80;100.00
6034;BME280;3045;43.226;27.858;2023-04-15T00:38:15;149729.06;;;14.69;100.00
6034;BME280;3045;43.226;27.858;2023-04-15T00:40:42;149741.75;;;14.74;100.00
6034;BME280;3045;43.226;27.858;2023-04-15T00:43:11;149698.63;;;14.56;100.00
6034;BME280;3045;43.226;27.858;2023-04-15T00:45:38;149673.31;;;14.46;100.00
6034;BME280;3045;43.226;27.858;2023-04-15T00:48:05;149635.19;;;14.31;100.00
6034;BME280;3045;43.226;27.858;2023-04-15T00:50:34;149516.03;;;13.84;100.00
6034;BME280;3045;43.226;27.858;2023-04-15T00:53:01;149646.66;;;14.36;100.00
6034;BME280;3045;43.226;27.858;2023-04-15T00:55:28;149608.59;;;14.21;100.00
6034;BME280;3045;43.226;27.858;2023-04-15T00:57:55;149599.72;;;14.17;100.00
6034;BME280;3045;43.226;27.858;2023-04-15T01:00:24;149608.59;;;14.21;100.00
6034;BME280;3045;43.226;27.858;2023-04-15T01:02:51;149606.03;;;14.19;100.00
6034;BME280;3045;43.226;27.858;2023-04-15T01:05:18;149633.91;;;14.31;100.00
6034;BME280;3045;43.226;27.858;2023-04-15T01:07:46;149649.19;;;14.37;100.00
6034;BME280;3045;43.226;27.858;2023-04-15T01:10:13;149656.78;;;14.40;100.00
6034;BME280;3045;43.226;27.858;2023-04-15T01:12:40;149687.22;;;14.52;100.00
6034;BME280;3045;43.226;27.858;2023-04-15T01:15:08;149717.63;;;14.64;100.00
6034;BME280;3045;43.226;27.858;2023-04-15T01:17:37;149768.41;;;14.84;100.00
6034;BME280;3045;43.226;27.858;2023-04-15T01:20:06;149786.13;;;14.91;100.00
6034;BME280;3045;43.226;27.858;2023-04-15T01:22:35;149784.88;;;14.91;100.00
6034;BME280;3045;43.226;27.858;2023-04-15T01:25:05;149819.13;;;15.04;100.00
6034;BME280;3045;43.226;27.858;2023-04-15T01:27:38;149857.16;;;15.20;100.00
6034;BME280;3045;43.226;27.858;2023-04-15T01:30:08;149768.41;;;14.84;100.00
6034;BME280;3045;43.226;27.858;2023-04-15T01:32:37;149836.88;;;15.12;100.00
6034;BME280;3045;43.226;27.858;2023-04-15T01:35:05;149864.81;;;15.23;100.00
6034;BME280;3045;43.226;27.858;2023-04-15T01:37:32;149871.13;;;15.25;100.00
6034;BME280;3045;43.226;27.858;2023-04-15T01:39:59;149857.16;;;15.20;100.00
6034;BME280;3045;43.226;27.858;2023-04-15T01:42:28;149841.97;;;15.14;100.00
6034;BME280;3045;43.226;27.858;2023-04-15T01:44:56;149869.84;;;15.25;100.00
6034;BME280;3045;43.226;27.858;2023-04-15T01:47:23;149849.56;;;15.17;100.00
6034;BME280;3045;43.226;27.858;2023-04-15T01:49:50;149858.44;;;15.20;100.00
6034;BME280;3045;43.226;27.858;2023-04-15T01:52:17;149858.44;;;15.20;100.00
6034;BME280;3045;43.226;27.858;2023-04-15T01:54:44;149862.25;;;15.22;100.00
6034;BME280;3045;43.226;27.858;2023-04-15T01:57:11;149872.41;;;15.26;100.00
6034;BME280;3045;43.226;27.858;2023-04-15T01:59:38;149859.72;;;15.21;100.00
6034;BME280;3045;43.226;27.858;2023-04-15T02:02:06;149859.72;;;15.21;100.00
6034;BME280;3045;43.226;27.858;2023-04-15T02:04:33;149801.38;;;14.97;100.00
6034;BME280;3045;43.226;27.858;2023-04-15T02:07:00;149755.72;;;14.79;100.00
6034;BME280;3045;43.226;27.858;2023-04-15T02:09:27;149776.00;;;14.87;100.00
6034;BME280;3045;43.226;27.858;2023-04-15T02:11:55;149756.97;;;14.80;100.00
6034;BME280;3045;43.226;27.858;2023-04-15T02:14:22;149770.91;;;14.85;100.00
6034;BME280;3045;43.226;27.858;2023-04-15T02:16:49;149750.63;;;14.77;100.00
6034;BME280;3045;43.226;27.858;2023-04-15T02:19:20;149760.75;;;14.81;100.00
6034;BME280;3045;43.226;27.858;2023-04-15T02:21:47;149776.00;;;14.87;100.00
6034;BME280;3045;43.226;27.858;2023-04-15T02:24:13;149781.09;;;14.89;100.00
6034;BME280;3045;43.226;27.858;2023-04-15T02:26:40;149793.75;;;14.94;100.00
6034;BME280;3045;43.226;27.858;2023-04-15T02:29:07;149774.72;;;14.87;100.00
6034;BME280;3045;43.226;27.858;2023-04-15T02:31:34;149763.31;;;14.82;100.00
6034;BME280;3045;43.226;27.858;2023-04-15T02:34:04;149734.16;;;14.71;100.00
6034;BME280;3045;43.226;27.858;2023-04-15T02:36:33;149707.50;;;14.60;100.00
6034;BME280;3045;43.226;27.858;2023-04-15T02:39:00;149715.13;;;14.63;100.00
6034;BME280;3045;43.226;27.858;2023-04-15T02:41:28;149725.28;;;14.67;100.00
6034;BME280;3045;43.226;27.858;2023-04-15T02:43:55;149696.06;;;14.55;100.00
6034;BME280;3045;43.226;27.858;2023-04-15T02:46:22;149706.28;;;14.59;100.00
6034;BME280;3045;43.226;27.858;2023-04-15T02:48:49;149707.50;;;14.60;100.00
6034;BME280;3045;43.226;27.858;2023-04-15T02:51:18;149688.50;;;14.52;100.00
6034;BME280;3045;43.226;27.858;2023-04-15T02:53:47;149682.16;;;14.50;100.00
6034;BME280;3045;43.226;27.858;2023-04-15T02:56:15;149679.63;;;14.49;100.00
6034;BME280;3045;43.226;27.858;2023-04-15T02:58:44;149691.03;;;14.53;100.00
6034;BME280;3045;43.226;27.858;2023-04-15T03:01:11;149635.19;;;14.31;100.00
6034;BME280;3045;43.226;27.858;2023-04-15T03:03:38;149664.38;;;14.43;100.00
6034;BME280;3045;43.226;27.858;2023-04-15T03:06:05;149620.00;;;14.25;100.00
6034;BME280;3045;43.226;27.858;2023-04-15T03:08:33;149630.16;;;14.29;100.00
6034;BME280;3045;43.226;27.858;2023-04-15T03:11:02;149626.31;;;14.28;100.00
6034;BME280;3045;43.226;27.858;2023-04-15T03:13:29;149522.41;;;13.86;100.00
6034;BME280;3045;43.226;27.858;2023-04-15T03:15:56;149626.31;;;14.28;100.00
6034;BME280;3045;43.226;27.858;2023-04-15T03:18:23;149664.38;;;14.43;100.00
6034;BME280;3045;43.226;27.858;2023-04-15T03:20:50;149699.91;;;14.57;100.00
6034;BME280;3045;43.226;27.858;2023-04-15T03:23:17;149715.13;;;14.63;100.00
6034;BME280;3045;43.226;27.858;2023-04-15T03:25:44;149760.75;;;14.81;100.00
6034;BME280;3045;43.226;27.858;2023-04-15T03:28:12;149796.28;;;14.95;100.00
6034;BME280;3045;43.226;27.858;2023-04-15T03:30:39;149805.16;;;14.99;100.00
6034;BME280;3045;43.226;27.858;2023-04-15T03:33:06;149821.66;;;15.05;100.00
6034;BME280;3045;43.226;27.858;2023-04-15T03:35:34;149844.50;;;15.15;100.00
6034;BME280;3045;43.226;27.858;2023-04-15T03:38:01;149873.69;;;15.26;100.00
6034;BME280;3045;43.226;27.858;2023-04-15T03:40:28;149902.84;;;15.38;100.00
6034;BME280;3045;43.226;27.858;2023-04-15T03:42:55;149920.59;;;15.45;100.00
6034;BME280;3045;43.226;27.858;2023-04-15T03:45:23;149948.59;;;15.56;100.00
6034;BME280;3045;43.226;27.858;2023-04-15T03:47:50;149981.59;;;15.69;100.00
6034;BME280;3045;43.226;27.858;2023-04-15T03:50:17;150004.44;;;15.78;100.00
6034;BME280;3045;43.226;27.858;2023-04-15T03:52:44;149958.72;;;15.60;100.00
6034;BME280;3045;43.226;27.858;2023-04-15T03:55:11;149886.38;;;15.31;100.00
6034;BME280;3045;43.226;27.858;2023-04-15T03:57:39;149841.97;;;15.14;100.00
6034;BME280;3045;43.226;27.858;2023-04-15T04:00:07;149847.00;;;15.16;100.00
6034;BME280;3045;43.226;27.858;2023-04-15T04:02:36;149807.69;;;15.00;100.00
6034;BME280;3045;43.226;27.858;2023-04-15T04:05:05;149841.97;;;15.14;100.00
6034;BME280;3045;43.226;27.858;2023-04-15T04:07:32;149839.41;;;15.13;100.00
6034;BME280;3045;43.226;27.858;2023-04-15T04:09:59;149841.97;;;15.14;100.00
6034;BME280;3045;43.226;27.858;2023-04-15T04:12:28;149824.19;;;15.06;100.00
6034;BME280;3045;43.226;27.858;2023-04-15T04:14:55;149784.88;;;14.91;100.00
6034;BME280;3045;43.226;27.858;2023-04-15T04:17:22;149778.53;;;14.88;100.00
6034;BME280;3045;43.226;27.858;2023-04-15T04:19:50;149792.47;;;14.94;100.00
6034;BME280;3045;43.226;27.858;2023-04-15T04:22:20;149801.38;;;14.97;100.00
6034;BME280;3045;43.226;27.858;2023-04-15T04:24:47;149826.72;;;15.07;100.00
6034;BME280;3045;43.226;27.858;2023-04-15T04:27:14;149857.16;;;15.20;100.00
6034;BME280;3045;43.226;27.858;2023-04-15T04:29:41;149857.16;;;15.20;100.00
6034;BME280;3045;43.226;27.858;2023-04-15T04:32:09;149839.41;;;15.13;100.00
6034;BME280;3045;43.226;27.858;2023-04-15T04:34:36;149845.75;;;15.15;100.00
6034;BME280;3045;43.226;27.858;2023-04-15T04:37:04;149885.09;;;15.31;100.00
6034;BME280;3045;43.226;27.858;2023-04-15T04:39:31;149893.97;;;15.34;100.00
6034;BME280;3045;43.226;27.858;2023-04-15T04:41:58;149892.69;;;15.34;100.00
6034;BME280;3045;43.226;27.858;2023-04-15T04:44:25;149850.84;;;15.17;100.00
6034;BME280;3045;43.226;27.858;2023-04-15T04:46:56;149817.84;;;15.04;100.00
6034;BME280;3045;43.226;27.858;2023-04-15T04:49:23;149782.31;;;14.90;100.00
6034;BME280;3045;43.226;27.858;2023-04-15T04:51:51;149786.13;;;14.91;100.00
6034;BME280;3045;43.226;27.858;2023-04-15T04:54:19;149796.28;;;14.95;100.00
6034;BME280;3045;43.226;27.858;2023-04-15T04:56:46;149801.38;;;14.97;100.00
6034;BME280;3045;43.226;27.858;2023-04-15T04:59:13;149789.97;;;14.93;100.00
6034;BME280;3045;43.226;27.858;2023-04-15T05:01:40;149807.69;;;15.00;100.00
6034;BME280;3045;43.226;27.858;2023-04-15T05:04:07;149834.38;;;15.11;100.00
6034;BME280;3045;43.226;27.858;2023-04-15T05:06:34;149841.97;;;15.14;100.00
6034;BME280;3045;43.226;27.858;2023-04-15T05:09:02;149840.69;;;15.13;100.00
6034;BME280;3045;43.226;27.858;2023-04-15T05:11:30;149852.13;;;15.18;100.00
6034;BME280;3045;43.226;27.858;2023-04-15T05:13:57;149815.31;;;15.03;100.00
6034;BME280;3045;43.226;27.858;2023-04-15T05:16:26;149901.56;;;15.37;100.00
6034;BME280;3045;43.226;27.858;2023-04-15T05:18:53;149929.50;;;15.48;100.00
6034;BME280;3045;43.226;27.858;2023-04-15T05:21:20;149920.59;;;15.45;100.00
6034;BME280;3045;43.226;27.858;2023-04-15T05:23:47;149915.53;;;15.43;100.00
6034;BME280;3045;43.226;27.858;2023-04-15T05:26:14;149887.66;;;15.32;100.00
6034;BME280;3045;43.226;27.858;2023-04-15T05:28:42;149869.84;;;15.25;100.00
6034;BME280;3045;43.226;27.858;2023-04-15T05:31:09;149886.38;;;15.31;100.00
6034;BME280;3045;43.226;27.858;2023-04-15T05:33:36;149913.00;;;15.42;100.00
6034;BME280;3045;43.226;27.858;2023-04-15T05:36:03;149943.50;;;15.54;100.00
6034;BME280;3045;43.226;27.858;2023-04-15T05:38:30;149933.34;;;15.50;100.00
6034;BME280;3045;43.226;27.858;2023-04-15T05:40:57;149953.63;;;15.58;100.00
6034;BME280;3045;43.226;27.858;2023-04-15T05:43:25;149965.06;;;15.63;100.00
6034;BME280;3045;43.226;27.858;2023-04-15T05:45:53;149914.28;;;15.42;100.00
6034;BME280;3045;43.226;27.858;2023-04-15T05:48:21;149852.13;;;15.18;100.00
6034;BME280;3045;43.226;27.858;2023-04-15T05:50:47;149858.44;;;15.20;100.00
6034;BME280;3045;43.226;27.858;2023-04-15T05:53:14;149806.44;;;14.99;100.00
6034;BME280;3045;43.226;27.858;2023-04-15T05:55:41;149788.69;;;14.92;100.00
6034;BME280;3045;43.226;27.858;2023-04-15T05:58:08;149769.66;;;14.85;100.00
6034;BME280;3045;43.226;27.858;2023-04-15T06:00:36;149779.81;;;14.89;100.00
6034;BME280;3045;43.226;27.858;2023-04-15T06:03:04;149819.13;;;15.04;100.00
6034;BME280;3045;43.226;27.858;2023-04-15T06:05:32;149806.44;;;14.99;100.00
6034;BME280;3045;43.226;27.858;2023-04-15T06:07:59;149737.97;;;14.72;100.00
6034;BME280;3045;43.226;27.858;2023-04-15T06:10:26;140824.41;;;14.45;100.00
6034;BME280;3045;43.226;27.858;2023-04-15T06:12:53;90034.25;;;14.31;100.00
6034;BME280;3045;43.226;27.858;2023-04-15T06:15:20;57158.16;;;14.12;100.00
6034;BME280;3045;43.226;27.858;2023-04-15T06:17:47;30776.56;;;14.01;100.00
6034;BME280;3045;43.226;27.858;2023-04-15T06:20:16;14276.28;;;13.94;100.00
6034;BME280;3045;43.226;27.858;2023-04-15T06:22:43;6219.63;;;13.92;100.00
6034;BME280;3045;43.226;27.858;2023-04-15T06:25:10;752.16;;;13.85;100.00
6034;BME280;3045;43.226;27.858;2023-04-15T06:27:37;-2780.13;;;13.77;100.00
6034;BME280;3045;43.226;27.858;2023-04-15T06:30:05;-5667.28;;;13.86;100.00
6034;BME280;3045;43.226;27.858;2023-04-15T06:32:32;-5667.53;;;13.93;100.00
6034;BME280;3045;43.226;27.858;2023-04-15T06:34:59;-6629.31;;;13.90;100.00
6034;BME280;3045;43.226;27.858;2023-04-15T06:37:27;-6949.09;;;13.77;100.00
6034;BME280;3045;43.226;27.858;2023-04-15T06:39:55;-6626.91;;;13.45;100.00
6034;BME280;3045;43.226;27.858;2023-04-15T06:42:22;-9510.06;;;13.57;100.00
6034;BME280;3045;43.226;27.858;2023-04-15T06:44:49;-10149.41;;;13.50;100.00
6034;BME280;3045;43.226;27.858;2023-04-15T06:47:16;-11748.91;;;13.48;100.00
6034;BME280;3045;43.226;27.858;2023-04-15T06:49:44;-11110.66;;;13.60;100.00
6034;BME280;3045;43.226;27.858;2023-04-15T06:52:11;-11753.25;;;13.80;100.00
6034;BME280;3045;43.226;27.858;2023-04-15T06:54:39;-10795.38;;;13.99;100.00
6034;BME280;3045;43.226;27.858;2023-04-15T06:57:06;-8874.75;;;14.13;100.00
6034;BME280;3045;43.226;27.858;2023-04-15T06:59:33;-7594.00;;;14.35;100.00
6034;BME280;3045;43.226;27.858;2023-04-15T07:02:00;-5670.41;;;14.69;100.00
6034;BME280;3045;43.226;27.858;2023-04-15T07:04:27;-2457.66;;;14.93;100.00
6034;BME280;3045;43.226;27.858;2023-04-15T07:06:54;3339.41;;;15.35;100.00
6034;BME280;3045;43.226;27.858;2023-04-15T07:09:23;19177.69;;;15.54;100.00
6034;BME280;3045;43.226;27.858;2023-04-15T07:11:51;39340.50;;;15.78;100.00
6034;BME280;3045;43.226;27.858;2023-04-15T07:14:18;54376.50;;;15.83;100.00
6034;BME280;3045;43.226;27.858;2023-04-15T07:16:45;65518.44;;;15.72;100.00
6034;BME280;3045;43.226;27.858;2023-04-15T07:19:12;62259.75;;;15.95;100.00
6034;BME280;3045;43.226;27.858;2023-04-15T07:21:39;69167.00;;;15.99;100.00
6034;BME280;3045;43.226;27.858;2023-04-15T07:24:06;62920.88;;;15.99;100.00
6034;BME280;3045;43.226;27.858;2023-04-15T07:26:34;46517.59;;;15.74;100.00
6034;BME280;3045;43.226;27.858;2023-04-15T07:29:03;36717.44;;;15.54;100.00
6034;BME280;3045;43.226;27.858;2023-04-15T07:31:30;26622.28;;;15.24;100.00
6034;BME280;3045;43.226;27.858;2023-04-15T07:33:57;19494.97;;;15.36;100.00
6034;BME280;3045;43.226;27.858;2023-04-15T07:36:24;19822.66;;;15.46;100.00
6034;BME280;3045;43.226;27.858;2023-04-15T07:38:51;21439.94;;;15.39;100.00
6034;BME280;3045;43.226;27.858;2023-04-15T07:41:18;18860.75;;;15.74;100.00
6034;BME280;3045;43.226;27.858;2023-04-15T07:43:45;21787.31;;;15.96;100.00
6034;BME280;3045;43.226;27.858;2023-04-15T07:46:20;47519.44;;;16.00;100.00
6034;BME280;3045;43.226;27.858;2023-04-15T07:48:48;96604.94;;;16.11;100.00
6034;BME280;3045;43.226;27.858;2023-04-15T07:51:15;96253.59;;;15.98;100.00
6034;BME280;3045;43.226;27.858;2023-04-15T07:53:43;87318.34;;;16.04;100.00
6034;BME280;3045;43.226;27.858;2023-04-15T07:56:10;104954.50;;;16.37;100.00
6034;BME280;3045;43.226;27.858;2023-04-15T07:58:37;150199.91;;;16.56;100.00
6034;BME280;3045;43.226;27.858;2023-04-15T08:01:04;150269.84;;;16.84;100.00
6034;BME280;3045;43.226;27.858;2023-04-15T08:03:33;150320.63;;;17.04;100.00
6034;BME280;3045;43.226;27.858;2023-04-15T08:06:00;150357.47;;;17.19;100.00
6034;BME280;3045;43.226;27.858;2023-04-15T08:08:29;150377.81;;;17.27;100.00
6034;BME280;3045;43.226;27.858;2023-04-15T08:10:57;150410.81;;;17.40;100.00
6034;BME280;3045;43.226;27.858;2023-04-15T08:13:25;150428.66;;;17.47;100.00
6034;BME280;3045;43.226;27.858;2023-04-15T08:16:12;150451.53;;;17.56;100.00
6034;BME280;3045;43.226;27.858;2023-04-15T08:18:42;150466.81;;;17.62;100.00
6034;BME280;3045;43.226;27.858;2023-04-15T08:21:09;150476.97;;;17.66;100.00
6034;BME280;3045;43.226;27.858;2023-04-15T08:23:36;150410.81;;;17.40;100.00
6034;BME280;3045;43.226;27.858;2023-04-15T08:26:04;150360.00;;;17.20;100.00
6034;BME280;3045;43.226;27.858;2023-04-15T08:28:31;150330.81;;;17.08;100.00
6034;BME280;3045;43.226;27.858;2023-04-15T08:30:58;150349.84;;;17.16;100.00
6034;BME280;3045;43.226;27.858;2023-04-15T08:33:25;150319.38;;;17.04;100.00
6034;BME280;3045;43.226;27.858;2023-04-15T08:35:54;150403.22;;;17.37;100.00
6034;BME280;3045;43.226;27.858;2023-04-15T08:38:22;150405.75;;;17.38;100.00
6034;BME280;3045;43.226;27.858;2023-04-15T08:40:49;150476.97;;;17.66;100.00
6034;BME280;3045;43.226;27.858;2023-04-15T08:43:20;150529.06;;;17.87;100.00
6034;BME280;3045;43.226;27.858;2023-04-15T08:45:49;150527.78;;;17.87;100.00
6034;BME280;3045;43.226;27.858;2023-04-15T08:48:18;150548.16;;;17.95;100.00
6034;BME280;3045;43.226;27.858;2023-04-15T08:50:46;150611.75;;;18.20;100.00
6034;BME280;3045;43.226;27.858;2023-04-15T08:53:14;150690.53;;;18.51;100.00
6034;BME280;3045;43.226;27.858;2023-04-15T08:55:43;150722.38;;;18.64;100.00
6034;BME280;3045;43.226;27.858;2023-04-15T08:58:11;150759.28;;;18.79;100.00
6034;BME280;3045;43.226;27.858;2023-04-15T09:00:38;150779.63;;;18.87;100.00
6034;BME280;3045;43.226;27.858;2023-04-15T09:03:06;150775.81;;;18.85;100.00
6034;BME280;3045;43.226;27.858;2023-04-15T09:05:37;150766.91;;;18.82;100.00
6034;BME280;3045;43.226;27.858;2023-04-15T09:08:04;150651.13;;;18.36;100.00
6034;BME280;3045;43.226;27.858;2023-04-15T09:10:33;150727.50;;;18.66;100.00
6034;BME280;3045;43.226;27.858;2023-04-15T09:13:00;150718.59;;;18.62;100.00
6034;BME280;3045;43.226;27.858;2023-04-15T09:15:27;150693.16;;;18.52;100.00
6034;BME280;3045;43.226;27.858;2023-04-15T09:17:55;150685.50;;;18.49;100.00
6034;BME280;3045;43.226;27.858;2023-04-15T09:20:22;150642.25;;;18.32;100.00
6034;BME280;3045;43.226;27.858;2023-04-15T09:22:49;150680.38;;;18.47;100.00
6034;BME280;3045;43.226;27.858;2023-04-15T09:25:27;150676.59;;;18.46;100.00
6034;BME280;3045;43.226;27.858;2023-04-15T09:27:56;150766.91;;;18.82;100.00
6034;BME280;3045;43.226;27.858;2023-04-15T09:30:24;150785.97;;;18.89;100.00
6034;BME280;3045;43.226;27.858;2023-04-15T09:32:52;150836.91;;;19.09;100.00
6034;BME280;3045;43.226;27.858;2023-04-15T09:35:20;150822.91;;;19.04;100.00
6034;BME280;3045;43.226;27.858;2023-04-15T09:37:48;150868.72;;;19.22;100.00
6034;BME280;3045;43.226;27.858;2023-04-15T09:40:30;150923.44;;;19.44;100.00
6034;BME280;3045;43.226;27.858;2023-04-15T09:42:58;151057.09;;;19.97;100.00
6034;BME280;3045;43.226;27.858;2023-04-15T09:45:26;151011.28;;;19.79;100.00
6034;BME280;3045;43.226;27.858;2023-04-15T09:47:53;151057.09;;;19.97;100.00
6034;BME280;3045;43.226;27.858;2023-04-15T09:50:20;151071.13;;;20.02;100.00
6034;BME280;3045;43.226;27.858;2023-04-15T09:52:48;150985.84;;;19.69;100.00
6034;BME280;3045;43.226;27.858;2023-04-15T09:55:17;150985.84;;;19.69;100.00
6034;BME280;3045;43.226;27.858;2023-04-15T09:57:45;150987.06;;;19.69;100.00
6034;BME280;3045;43.226;27.858;2023-04-15T10:00:14;150987.06;;;19.69;100.00
6034;BME280;3045;43.226;27.858;2023-04-15T10:02:42;150932.38;;;19.47;100.00
6034;BME280;3045;43.226;27.858;2023-04-15T10:05:10;151011.28;;;19.79;100.00
6034;BME280;3045;43.226;27.858;2023-04-15T10:07:39;150990.91;;;19.71;100.00
6034;BME280;3045;43.226;27.858;2023-04-15T10:10:07;151017.66;;;19.81;100.00
6034;BME280;3045;43.226;27.858;2023-04-15T10:12:36;151054.56;;;19.96;100.00
6034;BME280;3045;43.226;27.858;2023-04-15T10:15:05;151074.91;;;20.04;100.00
6034;BME280;3045;43.226;27.858;2023-04-15T10:17:35;151141.19;;;20.30;100.00
6034;BME280;3045;43.226;27.858;2023-04-15T10:20:03;151187.03;;;20.48;100.00
6034;BME280;3045;43.226;27.858;2023-04-15T10:22:31;151215.03;;;20.60;100.00
6034;BME280;3045;43.226;27.858;2023-04-15T10:24:58;151305.50;;;20.95;100.00
6034;BME280;3045;43.226;27.858;2023-04-15T10:27:26;151332.22;;;21.06;100.00
6034;BME280;3045;43.226;27.858;2023-04-15T10:29:54;151322.03;;;21.02;100.00
6034;BME280;3045;43.226;27.858;2023-04-15T10:32:23;151339.84;;;21.09;100.00
6034;BME280;3045;43.226;27.858;2023-04-15T10:34:52;151341.13;;;21.10;100.00
6034;BME280;3045;43.226;27.858;2023-04-15T10:37:20;151389.63;;;21.29;100.00
6034;BME280;3045;43.226;27.858;2023-04-15T10:39:48;151413.84;;;21.38;100.00
6034;BME280;3045;43.226;27.858;2023-04-15T10:42:20;151452.06;;;21.54;100.00
6034;BME280;3045;43.226;27.858;2023-04-15T10:44:49;151459.69;;;21.57;100.00
6034;BME280;3045;43.226;27.858;2023-04-15T10:47:18;151475.00;;;21.63;100.00
6034;BME280;3045;43.226;27.858;2023-04-15T10:49:47;151494.13;;;21.70;100.00
6034;BME280;3045;43.226;27.858;2023-04-15T10:52:20;151485.22;;;21.67;100.00
6034;BME280;3045;43.226;27.858;2023-04-15T10:54:48;151497.97;;;21.72;100.00
6034;BME280;3045;43.226;27.858;2023-04-15T10:57:20;151513.22;;;21.78;100.00
6034;BME280;3045;43.226;27.858;2023-04-15T11:00:10;151504.31;;;21.74;100.00
6034;BME280;3045;43.226;27.858;2023-04-15T11:02:45;151477.56;;;21.64;100.00
6034;BME280;3045;43.226;27.858;2023-04-15T11:05:13;151441.88;;;21.50;100.00
6034;BME280;3045;43.226;27.858;2023-04-15T11:07:48;151375.59;;;21.23;100.00
6034;BME280;3045;43.226;27.858;2023-04-15T11:13:17;151376.88;;;21.24;100.00
6034;BME280;3045;43.226;27.858;2023-04-15T11:15:47;151328.44;;;21.05;100.00
6034;BME280;3045;43.226;27.858;2023-04-15T11:18:16;151292.75;;;20.90;100.00
6034;BME280;3045;43.226;27.858;2023-04-15T11:20:45;151344.97;;;21.11;100.00
6034;BME280;3045;43.226;27.858;2023-04-15T11:23:14;151319.47;;;21.01;100.00
6034;BME280;3045;43.226;27.858;2023-04-15T11:25:43;151359.06;;;21.17;100.00
6034;BME280;3045;43.226;27.858;2023-04-15T11:28:10;151384.50;;;21.27;100.00
6034;BME280;3045;43.226;27.858;2023-04-15T11:30:38;151376.88;;;21.24;100.00
6034;BME280;3045;43.226;27.858;2023-04-15T11:33:06;151408.72;;;21.36;100.00
6034;BME280;3045;43.226;27.858;2023-04-15T11:35:34;151431.69;;;21.46;100.00
6034;BME280;3045;43.226;27.858;2023-04-15T11:38:02;151426.56;;;21.43;100.00
6034;BME280;3045;43.226;27.858;2023-04-15T11:40:31;151431.69;;;21.46;100.00
6034;BME280;3045;43.226;27.858;2023-04-15T11:43:04;151429.13;;;21.45;100.00
6034;BME280;3045;43.226;27.858;2023-04-15T11:45:31;151429.13;;;21.45;100.00
6034;BME280;3045;43.226;27.858;2023-04-15T11:48:06;151441.88;;;21.50;100.00
6034;BME280;3045;43.226;27.858;2023-04-15T11:50:34;151431.69;;;21.46;100.00
6034;BME280;3045;43.226;27.858;2023-04-15T11:53:03;151463.53;;;21.58;100.00
6034;BME280;3045;43.226;27.858;2023-04-15T11:55:40;151457.13;;;21.56;100.00
6034;BME280;3045;43.226;27.858;2023-04-15T11:58:09;151453.34;;;21.54;100.00
6034;BME280;3045;43.226;27.858;2023-04-15T12:00:37;151460.97;;;21.57;100.00
6034;BME280;3045;43.226;27.858;2023-04-15T12:03:16;151509.44;;;21.76;100.00
6034;BME280;3045;43.226;27.858;2023-04-15T12:06:03;151500.47;;;21.73;100.00
6034;BME280;3045;43.226;27.858;2023-04-15T12:08:50;151526.00;;;21.83;100.00
6034;BME280;3045;43.226;27.858;2023-04-15T12:11:20;151459.69;;;21.57;100.00
6034;BME280;3045;43.226;27.858;2023-04-15T12:13:48;151505.59;;;21.75;100.00
6034;BME280;3045;43.226;27.858;2023-04-15T12:16:17;151501.75;;;21.73;100.00
6034;BME280;3045;43.226;27.858;2023-04-15T12:18:45;151450.78;;;21.53;100.00
6034;BME280;3045;43.226;27.858;2023-04-15T12:21:13;151552.81;;;21.94;100.00
6034;BME280;3045;43.226;27.858;2023-04-15T12:23:47;151533.63;;;21.86;100.00
6034;BME280;3045;43.226;27.858;2023-04-15T12:26:14;151421.50;;;21.41;100.00
6034;BME280;3045;43.226;27.858;2023-04-15T12:28:43;151316.97;;;21.00;100.00
6034;BME280;3045;43.226;27.858;2023-04-15T12:31:11;151246.88;;;20.72;100.00
6034;BME280;3045;43.226;27.858;2023-04-15T12:33:38;151225.22;;;20.64;100.00
6034;BME280;3045;43.226;27.858;2023-04-15T12:36:05;151249.44;;;20.73;100.00
6034;BME280;3045;43.226;27.858;2023-04-15T12:38:32;151153.91;;;20.35;100.00
6034;BME280;3045;43.226;27.858;2023-04-15T12:41:00;151162.81;;;20.39;100.00
6034;BME280;3045;43.226;27.858;2023-04-15T12:43:26;151179.38;;;20.45;100.00
6034;BME280;3045;43.226;27.858;2023-04-15T12:45:55;151109.31;;;20.18;100.00
6034;BME280;3045;43.226;27.858;2023-04-15T12:48:22;151074.91;;;20.04;100.00
6034;BME280;3045;43.226;27.858;2023-04-15T12:50:49;150965.44;;;19.60;100.00
6034;BME280;3045;43.226;27.858;2023-04-15T12:53:16;150999.81;;;19.74;100.00
6034;BME280;3045;43.226;27.858;2023-04-15T12:55:43;150970.53;;;19.63;100.00
6034;BME280;3045;43.226;27.858;2023-04-15T12:58:10;150928.56;;;19.46;100.00